sensor_id;sensor_type;location;lat;lon;timestamp;P1;durP1;ratioP1;P2;durP2;ratioP2
65667;SDS011;52369;52.542;13.232;2022-07-23T00:00:39;11.05;;;5.88;;
65667;SDS011;52369;52.542;13.232;2022-07-23T00:03:05;9.65;;;5.95;;
65667;SDS011;52369;52.542;13.232;2022-07-23T00:05:31;10.40;;;5.80;;
65667;SDS011;52369;52.542;13.232;2022-07-23T00:07:57;12.05;;;6.35;;
65667;SDS011;52369;52.542;13.232;2022-07-23T00:10:23;9.70;;;5.97;;
65667;SDS011;52369;52.542;13.232;2022-07-23T00:12:49;9.93;;;5.50;;
65667;SDS011;52369;52.542;13.232;2022-07-23T00:15:15;8.30;;;5.30;;
65667;SDS011;52369;52.542;13.232;2022-07-23T00:17:41;9.13;;;6.10;;
65667;SDS011;52369;52.542;13.232;2022-07-23T00:20:07;8.00;;;5.18;;
65667;SDS011;52369;52.542;13.232;2022-07-23T00:22:33;8.55;;;5.47;;
65667;SDS011;52369;52.542;13.232;2022-07-23T00:25:00;9.63;;;5.38;;
65667;SDS011;52369;52.542;13.232;2022-07-23T00:27:26;9.65;;;5.50;;
65667;SDS011;52369;52.542;13.232;2022-07-23T00:29:52;7.75;;;5.72;;
65667;SDS011;52369;52.542;13.232;2022-07-23T00:32:18;10.13;;;6.10;;
65667;SDS011;52369;52.542;13.232;2022-07-23T00:34:44;11.60;;;6.07;;
65667;SDS011;52369;52.542;13.232;2022-07-23T00:37:10;9.80;;;5.85;;
65667;SDS011;52369;52.542;13.232;2022-07-23T00:39:36;12.27;;;5.97;;
65667;SDS011;52369;52.542;13.232;2022-07-23T00:42:02;11.27;;;6.38;;
65667;SDS011;52369;52.542;13.232;2022-07-23T00:44:28;10.82;;;6.22;;
65667;SDS011;52369;52.542;13.232;2022-07-23T00:46:56;10.23;;;6.35;;
65667;SDS011;52369;52.542;13.232;2022-07-23T00:49:23;10.10;;;6.15;;
65667;SDS011;52369;52.542;13.232;2022-07-23T00:51:50;9.90;;;5.72;;
65667;SDS011;52369;52.542;13.232;2022-07-23T00:54:17;11.45;;;6.60;;
65667;SDS011;52369;52.542;13.232;2022-07-23T00:56:43;9.68;;;6.28;;
65667;SDS011;52369;52.542;13.232;2022-07-23T00:59:09;11.60;;;6.28;;
65667;SDS011;52369;52.542;13.232;2022-07-23T01:01:36;10.75;;;6.10;;
65667;SDS011;52369;52.542;13.232;2022-07-23T01:04:02;9.65;;;5.80;;
65667;SDS011;52369;52.542;13.232;2022-07-23T01:06:28;10.27;;;5.90;;
65667;SDS011;52369;52.542;13.232;2022-07-23T01:08:54;11.23;;;6.30;;
65667;SDS011;52369;52.542;13.232;2022-07-23T01:11:21;11.82;;;6.22;;
65667;SDS011;52369;52.542;13.232;2022-07-23T01:13:49;10.57;;;6.70;;
65667;SDS011;52369;52.542;13.232;2022-07-23T01:16:15;10.13;;;6.22;;
65667;SDS011;52369;52.542;13.232;2022-07-23T01:18:41;11.55;;;6.75;;
65667;SDS011;52369;52.542;13.232;2022-07-23T01:21:07;9.38;;;6.32;;
65667;SDS011;52369;52.542;13.232;2022-07-23T01:23:34;11.50;;;6.25;;
65667;SDS011;52369;52.542;13.232;2022-07-23T01:26:00;11.50;;;6.22;;
65667;SDS011;52369;52.542;13.232;2022-07-23T01:28:27;8.75;;;5.93;;
65667;SDS011;52369;52.542;13.232;2022-07-23T01:30:53;11.10;;;6.20;;
65667;SDS011;52369;52.542;13.232;2022-07-23T01:33:19;10.82;;;5.82;;
65667;SDS011;52369;52.542;13.232;2022-07-23T01:35:45;10.15;;;6.03;;
65667;SDS011;52369;52.542;13.232;2022-07-23T01:38:11;12.13;;;6.13;;
65667;SDS011;52369;52.542;13.232;2022-07-23T01:40:37;9.48;;;5.90;;
65667;SDS011;52369;52.542;13.232;2022-07-23T01:43:03;12.93;;;6.30;;
65667;SDS011;52369;52.542;13.232;2022-07-23T01:45:29;12.25;;;6.38;;
65667;SDS011;52369;52.542;13.232;2022-07-23T01:47:55;9.55;;;5.78;;
65667;SDS011;52369;52.542;13.232;2022-07-23T01:50:21;9.00;;;5.82;;
65667;SDS011;52369;52.542;13.232;2022-07-23T01:52:47;9.50;;;5.93;;
65667;SDS011;52369;52.542;13.232;2022-07-23T01:55:13;9.18;;;5.75;;
65667;SDS011;52369;52.542;13.232;2022-07-23T01:57:39;8.15;;;5.40;;
65667;SDS011;52369;52.542;13.232;2022-07-23T02:00:05;10.05;;;6.07;;
65667;SDS011;52369;52.542;13.232;2022-07-23T02:02:31;9.13;;;5.70;;
65667;SDS011;52369;52.542;13.232;2022-07-23T02:04:57;9.82;;;6.57;;
65667;SDS011;52369;52.542;13.232;2022-07-23T02:07:23;9.55;;;5.65;;
65667;SDS011;52369;52.542;13.232;2022-07-23T02:09:49;8.77;;;5.78;;
65667;SDS011;52369;52.542;13.232;2022-07-23T02:12:15;11.27;;;6.20;;
65667;SDS011;52369;52.542;13.232;2022-07-23T02:14:41;9.60;;;6.38;;
65667;SDS011;52369;52.542;13.232;2022-07-23T02:17:07;11.27;;;6.03;;
65667;SDS011;52369;52.542;13.232;2022-07-23T02:19:33;11.48;;;5.93;;
65667;SDS011;52369;52.542;13.232;2022-07-23T02:21:59;11.20;;;6.28;;
65667;SDS011;52369;52.542;13.232;2022-07-23T02:24:25;10.38;;;6.00;;
65667;SDS011;52369;52.542;13.232;2022-07-23T02:26:51;10.65;;;6.30;;
65667;SDS011;52369;52.542;13.232;2022-07-23T02:29:17;8.90;;;6.13;;
65667;SDS011;52369;52.542;13.232;2022-07-23T02:31:43;10.15;;;6.15;;
65667;SDS011;52369;52.542;13.232;2022-07-23T02:34:09;11.57;;;6.15;;
65667;SDS011;52369;52.542;13.232;2022-07-23T02:36:36;9.45;;;5.78;;
65667;SDS011;52369;52.542;13.232;2022-07-23T02:39:03;10.50;;;6.05;;
65667;SDS011;52369;52.542;13.232;2022-07-23T02:41:29;8.70;;;6.03;;
65667;SDS011;52369;52.542;13.232;2022-07-23T02:43:55;11.05;;;6.25;;
65667;SDS011;52369;52.542;13.232;2022-07-23T02:46:21;11.07;;;6.47;;
65667;SDS011;52369;52.542;13.232;2022-07-23T02:48:47;13.02;;;6.30;;
65667;SDS011;52369;52.542;13.232;2022-07-23T02:51:13;9.10;;;6.00;;
65667;SDS011;52369;52.542;13.232;2022-07-23T02:53:39;9.43;;;6.13;;
65667;SDS011;52369;52.542;13.232;2022-07-23T02:56:05;11.00;;;5.93;;
65667;SDS011;52369;52.542;13.232;2022-07-23T02:58:31;12.43;;;6.05;;
65667;SDS011;52369;52.542;13.232;2022-07-23T03:00:57;8.77;;;5.47;;
65667;SDS011;52369;52.542;13.232;2022-07-23T03:03:23;10.68;;;6.20;;
65667;SDS011;52369;52.542;13.232;2022-07-23T03:05:49;10.65;;;5.78;;
65667;SDS011;52369;52.542;13.232;2022-07-23T03:08:15;11.85;;;6.28;;
65667;SDS011;52369;52.542;13.232;2022-07-23T03:10:41;12.55;;;5.60;;
65667;SDS011;52369;52.542;13.232;2022-07-23T03:13:07;11.48;;;5.45;;
65667;SDS011;52369;52.542;13.232;2022-07-23T03:15:33;10.73;;;5.50;;
65667;SDS011;52369;52.542;13.232;2022-07-23T03:17:59;8.00;;;5.10;;
65667;SDS011;52369;52.542;13.232;2022-07-23T03:20:25;8.20;;;5.20;;
65667;SDS011;52369;52.542;13.232;2022-07-23T03:22:51;9.13;;;5.60;;
65667;SDS011;52369;52.542;13.232;2022-07-23T03:25:17;9.15;;;5.03;;
65667;SDS011;52369;52.542;13.232;2022-07-23T03:27:43;8.50;;;4.80;;
65667;SDS011;52369;52.542;13.232;2022-07-23T03:30:10;7.68;;;5.07;;
65667;SDS011;52369;52.542;13.232;2022-07-23T03:32:36;10.63;;;4.93;;
65667;SDS011;52369;52.542;13.232;2022-07-23T03:35:03;7.80;;;4.97;;
65667;SDS011;52369;52.542;13.232;2022-07-23T03:37:29;8.45;;;4.78;;
65667;SDS011;52369;52.542;13.232;2022-07-23T03:39:55;7.07;;;4.63;;
65667;SDS011;52369;52.542;13.232;2022-07-23T03:42:21;8.30;;;4.38;;
65667;SDS011;52369;52.542;13.232;2022-07-23T03:44:47;10.48;;;4.40;;
65667;SDS011;52369;52.542;13.232;2022-07-23T03:47:13;7.88;;;4.00;;
65667;SDS011;52369;52.542;13.232;2022-07-23T03:49:39;5.93;;;4.03;;
65667;SDS011;52369;52.542;13.232;2022-07-23T03:52:05;7.82;;;4.00;;
65667;SDS011;52369;52.542;13.232;2022-07-23T03:54:31;5.97;;;3.92;;
65667;SDS011;52369;52.542;13.232;2022-07-23T03:56:57;6.93;;;3.83;;
65667;SDS011;52369;52.542;13.232;2022-07-23T03:59:23;8.10;;;3.83;;
65667;SDS011;52369;52.542;13.232;2022-07-23T04:01:49;7.00;;;3.15;;
65667;SDS011;52369;52.542;13.232;2022-07-23T04:04:15;7.55;;;3.65;;
65667;SDS011;52369;52.542;13.232;2022-07-23T04:06:41;6.13;;;3.38;;
65667;SDS011;52369;52.542;13.232;2022-07-23T04:09:07;8.77;;;3.40;;
65667;SDS011;52369;52.542;13.232;2022-07-23T04:11:33;7.75;;;3.55;;
65667;SDS011;52369;52.542;13.232;2022-07-23T04:14:01;6.28;;;3.33;;
65667;SDS011;52369;52.542;13.232;2022-07-23T04:16:28;6.50;;;3.60;;
65667;SDS011;52369;52.542;13.232;2022-07-23T04:18:56;7.53;;;3.80;;
65667;SDS011;52369;52.542;13.232;2022-07-23T04:21:22;9.13;;;3.70;;
65667;SDS011;52369;52.542;13.232;2022-07-23T04:23:48;7.15;;;3.42;;
65667;SDS011;52369;52.542;13.232;2022-07-23T04:26:14;9.25;;;4.22;;
65667;SDS011;52369;52.542;13.232;2022-07-23T04:28:40;7.63;;;3.60;;
65667;SDS011;52369;52.542;13.232;2022-07-23T04:31:09;6.75;;;3.78;;
65667;SDS011;52369;52.542;13.232;2022-07-23T04:33:35;6.68;;;3.63;;
65667;SDS011;52369;52.542;13.232;2022-07-23T04:36:01;7.43;;;3.55;;
65667;SDS011;52369;52.542;13.232;2022-07-23T04:38:27;8.30;;;3.80;;
65667;SDS011;52369;52.542;13.232;2022-07-23T04:40:53;8.88;;;4.03;;
65667;SDS011;52369;52.542;13.232;2022-07-23T04:43:19;8.38;;;3.92;;
65667;SDS011;52369;52.542;13.232;2022-07-23T04:45:45;7.63;;;3.70;;
65667;SDS011;52369;52.542;13.232;2022-07-23T04:48:11;6.28;;;3.83;;
65667;SDS011;52369;52.542;13.232;2022-07-23T04:50:37;8.52;;;4.05;;
65667;SDS011;52369;52.542;13.232;2022-07-23T04:53:03;6.30;;;3.85;;
65667;SDS011;52369;52.542;13.232;2022-07-23T04:55:29;10.02;;;4.70;;
65667;SDS011;52369;52.542;13.232;2022-07-23T04:57:55;9.30;;;4.13;;
65667;SDS011;52369;52.542;13.232;2022-07-23T05:00:21;10.43;;;5.68;;
65667;SDS011;52369;52.542;13.232;2022-07-23T05:02:47;9.02;;;4.65;;
65667;SDS011;52369;52.542;13.232;2022-07-23T05:05:13;11.18;;;5.03;;
65667;SDS011;52369;52.542;13.232;2022-07-23T05:07:39;8.55;;;3.97;;
65667;SDS011;52369;52.542;13.232;2022-07-23T05:10:06;10.65;;;4.60;;
65667;SDS011;52369;52.542;13.232;2022-07-23T05:12:32;9.32;;;3.97;;
65667;SDS011;52369;52.542;13.232;2022-07-23T05:14:58;7.88;;;3.80;;
65667;SDS011;52369;52.542;13.232;2022-07-23T05:17:24;9.07;;;4.53;;
65667;SDS011;52369;52.542;13.232;2022-07-23T05:19:50;7.45;;;3.95;;
65667;SDS011;52369;52.542;13.232;2022-07-23T05:22:16;8.35;;;4.07;;
65667;SDS011;52369;52.542;13.232;2022-07-23T05:24:42;5.95;;;4.03;;
65667;SDS011;52369;52.542;13.232;2022-07-23T05:27:08;6.90;;;4.20;;
65667;SDS011;52369;52.542;13.232;2022-07-23T05:29:34;10.13;;;4.13;;
65667;SDS011;52369;52.542;13.232;2022-07-23T05:32:00;7.28;;;3.95;;
65667;SDS011;52369;52.542;13.232;2022-07-23T05:34:26;8.25;;;3.58;;
65667;SDS011;52369;52.542;13.232;2022-07-23T05:36:52;8.60;;;4.20;;
65667;SDS011;52369;52.542;13.232;2022-07-23T05:39:18;7.90;;;3.70;;
65667;SDS011;52369;52.542;13.232;2022-07-23T05:41:44;5.55;;;3.67;;
65667;SDS011;52369;52.542;13.232;2022-07-23T05:44:10;9.10;;;3.70;;
65667;SDS011;52369;52.542;13.232;2022-07-23T05:46:36;8.88;;;3.60;;
65667;SDS011;52369;52.542;13.232;2022-07-23T05:49:02;7.03;;;3.70;;
65667;SDS011;52369;52.542;13.232;2022-07-23T05:51:28;6.30;;;3.70;;
65667;SDS011;52369;52.542;13.232;2022-07-23T05:53:54;6.85;;;3.72;;
65667;SDS011;52369;52.542;13.232;2022-07-23T05:56:20;5.88;;;3.80;;
65667;SDS011;52369;52.542;13.232;2022-07-23T05:58:46;8.13;;;3.72;;
65667;SDS011;52369;52.542;13.232;2022-07-23T06:01:12;8.13;;;3.90;;
65667;SDS011;52369;52.542;13.232;2022-07-23T06:03:38;8.77;;;4.53;;
65667;SDS011;52369;52.542;13.232;2022-07-23T06:06:05;6.35;;;3.55;;
65667;SDS011;52369;52.542;13.232;2022-07-23T06:08:31;9.63;;;3.90;;
65667;SDS011;52369;52.542;13.232;2022-07-23T06:10:57;8.35;;;3.85;;
65667;SDS011;52369;52.542;13.232;2022-07-23T06:13:23;8.73;;;4.05;;
65667;SDS011;52369;52.542;13.232;2022-07-23T06:15:49;7.55;;;3.92;;
65667;SDS011;52369;52.542;13.232;2022-07-23T06:18:15;9.45;;;4.20;;
65667;SDS011;52369;52.542;13.232;2022-07-23T06:20:41;10.25;;;4.00;;
65667;SDS011;52369;52.542;13.232;2022-07-23T06:23:07;8.80;;;4.65;;
65667;SDS011;52369;52.542;13.232;2022-07-23T06:25:33;7.05;;;3.95;;
65667;SDS011;52369;52.542;13.232;2022-07-23T06:27:59;8.52;;;3.83;;
65667;SDS011;52369;52.542;13.232;2022-07-23T06:30:25;8.95;;;3.70;;
65667;SDS011;52369;52.542;13.232;2022-07-23T06:32:51;8.73;;;4.03;;
65667;SDS011;52369;52.542;13.232;2022-07-23T06:35:17;9.13;;;4.07;;
65667;SDS011;52369;52.542;13.232;2022-07-23T06:37:43;9.57;;;3.97;;
65667;SDS011;52369;52.542;13.232;2022-07-23T06:40:09;7.43;;;3.88;;
65667;SDS011;52369;52.542;13.232;2022-07-23T06:42:35;9.77;;;3.63;;
65667;SDS011;52369;52.542;13.232;2022-07-23T06:45:03;8.73;;;3.85;;
65667;SDS011;52369;52.542;13.232;2022-07-23T06:47:30;7.03;;;3.60;;
65667;SDS011;52369;52.542;13.232;2022-07-23T06:49:55;8.95;;;4.20;;
65667;SDS011;52369;52.542;13.232;2022-07-23T06:52:21;8.73;;;3.80;;
65667;SDS011;52369;52.542;13.232;2022-07-23T06:54:47;6.68;;;3.67;;
65667;SDS011;52369;52.542;13.232;2022-07-23T06:57:14;7.07;;;3.67;;
65667;SDS011;52369;52.542;13.232;2022-07-23T06:59:40;9.18;;;3.90;;
65667;SDS011;52369;52.542;13.232;2022-07-23T07:02:07;7.70;;;3.67;;
65667;SDS011;52369;52.542;13.232;2022-07-23T07:04:33;10.48;;;4.15;;
65667;SDS011;52369;52.542;13.232;2022-07-23T07:06:59;9.45;;;4.00;;
65667;SDS011;52369;52.542;13.232;2022-07-23T07:09:25;10.35;;;3.90;;
65667;SDS011;52369;52.542;13.232;2022-07-23T07:11:51;7.88;;;3.60;;
65667;SDS011;52369;52.542;13.232;2022-07-23T07:14:17;9.10;;;3.63;;
65667;SDS011;52369;52.542;13.232;2022-07-23T07:16:43;9.85;;;4.22;;
65667;SDS011;52369;52.542;13.232;2022-07-23T07:19:09;7.35;;;3.78;;
65667;SDS011;52369;52.542;13.232;2022-07-23T07:21:35;10.98;;;6.20;;
65667;SDS011;52369;52.542;13.232;2022-07-23T07:24:01;12.68;;;6.32;;
65667;SDS011;52369;52.542;13.232;2022-07-23T07:26:27;10.07;;;5.43;;
65667;SDS011;52369;52.542;13.232;2022-07-23T07:28:53;8.40;;;4.82;;
65667;SDS011;52369;52.542;13.232;2022-07-23T07:31:19;14.27;;;7.13;;
65667;SDS011;52369;52.542;13.232;2022-07-23T07:33:45;23.00;;;11.32;;
65667;SDS011;52369;52.542;13.232;2022-07-23T07:36:11;12.00;;;6.68;;
65667;SDS011;52369;52.542;13.232;2022-07-23T07:38:37;12.00;;;4.85;;
65667;SDS011;52369;52.542;13.232;2022-07-23T07:41:03;15.80;;;5.97;;
65667;SDS011;52369;52.542;13.232;2022-07-23T07:43:29;15.68;;;5.30;;
65667;SDS011;52369;52.542;13.232;2022-07-23T07:45:55;9.48;;;5.00;;
65667;SDS011;52369;52.542;13.232;2022-07-23T07:48:21;8.45;;;5.03;;
65667;SDS011;52369;52.542;13.232;2022-07-23T07:50:47;7.80;;;4.50;;
65667;SDS011;52369;52.542;13.232;2022-07-23T07:53:13;8.45;;;4.47;;
65667;SDS011;52369;52.542;13.232;2022-07-23T07:55:39;10.60;;;5.35;;
65667;SDS011;52369;52.542;13.232;2022-07-23T07:58:05;7.63;;;4.50;;
65667;SDS011;52369;52.542;13.232;2022-07-23T08:00:31;9.10;;;4.50;;
65667;SDS011;52369;52.542;13.232;2022-07-23T08:02:58;8.60;;;4.28;;
65667;SDS011;52369;52.542;13.232;2022-07-23T08:05:27;9.10;;;5.18;;
65667;SDS011;52369;52.542;13.232;2022-07-23T08:07:55;7.75;;;4.10;;
65667;SDS011;52369;52.542;13.232;2022-07-23T08:10:21;6.43;;;3.60;;
65667;SDS011;52369;52.542;13.232;2022-07-23T08:12:48;5.55;;;3.80;;
65667;SDS011;52369;52.542;13.232;2022-07-23T08:15:15;6.53;;;3.42;;
65667;SDS011;52369;52.542;13.232;2022-07-23T08:17:42;7.38;;;3.40;;
65667;SDS011;52369;52.542;13.232;2022-07-23T08:20:09;7.15;;;3.28;;
65667;SDS011;52369;52.542;13.232;2022-07-23T08:22:55;4.53;;;3.15;;
65667;SDS011;52369;52.542;13.232;2022-07-23T08:25:31;6.78;;;3.30;;
65667;SDS011;52369;52.542;13.232;2022-07-23T08:27:57;6.30;;;3.40;;
65667;SDS011;52369;52.542;13.232;2022-07-23T08:30:24;6.25;;;3.10;;
65667;SDS011;52369;52.542;13.232;2022-07-23T08:32:52;6.68;;;3.17;;
65667;SDS011;52369;52.542;13.232;2022-07-23T08:35:21;5.70;;;3.10;;
65667;SDS011;52369;52.542;13.232;2022-07-23T08:37:47;5.88;;;3.20;;
65667;SDS011;52369;52.542;13.232;2022-07-23T08:40:13;7.45;;;3.13;;
65667;SDS011;52369;52.542;13.232;2022-07-23T08:42:39;5.45;;;3.00;;
65667;SDS011;52369;52.542;13.232;2022-07-23T08:45:06;7.85;;;3.30;;
65667;SDS011;52369;52.542;13.232;2022-07-23T08:47:33;8.10;;;4.63;;
65667;SDS011;52369;52.542;13.232;2022-07-23T08:49:59;9.88;;;4.05;;
65667;SDS011;52369;52.542;13.232;2022-07-23T08:52:25;10.77;;;5.50;;
65667;SDS011;52369;52.542;13.232;2022-07-23T08:54:51;7.85;;;4.03;;
65667;SDS011;52369;52.542;13.232;2022-07-23T08:57:18;7.05;;;3.70;;
65667;SDS011;52369;52.542;13.232;2022-07-23T08:59:44;6.18;;;4.03;;
65667;SDS011;52369;52.542;13.232;2022-07-23T09:02:10;6.85;;;4.22;;
65667;SDS011;52369;52.542;13.232;2022-07-23T09:04:37;7.18;;;3.55;;
65667;SDS011;52369;52.542;13.232;2022-07-23T09:07:03;8.52;;;4.85;;
65667;SDS011;52369;52.542;13.232;2022-07-23T09:09:29;6.03;;;3.80;;
65667;SDS011;52369;52.542;13.232;2022-07-23T09:14:48;8.52;;;3.72;;
65667;SDS011;52369;52.542;13.232;2022-07-23T09:17:16;4.88;;;3.38;;
65667;SDS011;52369;52.542;13.232;2022-07-23T09:19:42;7.57;;;3.78;;
65667;SDS011;52369;52.542;13.232;2022-07-23T09:22:22;9.57;;;4.60;;
65667;SDS011;52369;52.542;13.232;2022-07-23T09:30:18;10.27;;;4.28;;
65667;SDS011;52369;52.542;13.232;2022-07-23T09:32:44;8.75;;;4.47;;
65667;SDS011;52369;52.542;13.232;2022-07-23T09:35:48;6.43;;;3.97;;
65667;SDS011;52369;52.542;13.232;2022-07-23T09:38:14;7.15;;;4.18;;
65667;SDS011;52369;52.542;13.232;2022-07-23T09:40:40;8.07;;;3.67;;
65667;SDS011;52369;52.542;13.232;2022-07-23T09:43:07;7.88;;;4.15;;
65667;SDS011;52369;52.542;13.232;2022-07-23T09:45:33;5.15;;;3.75;;
65667;SDS011;52369;52.542;13.232;2022-07-23T09:48:15;7.32;;;4.32;;
65667;SDS011;52369;52.542;13.232;2022-07-23T09:50:42;7.60;;;3.87;;
65667;SDS011;52369;52.542;13.232;2022-07-23T09:53:09;6.82;;;4.15;;
65667;SDS011;52369;52.542;13.232;2022-07-23T09:55:35;12.45;;;4.07;;
65667;SDS011;52369;52.542;13.232;2022-07-23T09:58:05;6.30;;;3.85;;
65667;SDS011;52369;52.542;13.232;2022-07-23T10:00:38;10.00;;;4.35;;
65667;SDS011;52369;52.542;13.232;2022-07-23T10:03:04;7.22;;;3.58;;
65667;SDS011;52369;52.542;13.232;2022-07-23T10:05:31;7.60;;;3.90;;
65667;SDS011;52369;52.542;13.232;2022-07-23T10:08:00;6.32;;;3.65;;
65667;SDS011;52369;52.542;13.232;2022-07-23T10:10:27;6.82;;;3.90;;
65667;SDS011;52369;52.542;13.232;2022-07-23T10:12:56;7.68;;;4.03;;
65667;SDS011;52369;52.542;13.232;2022-07-23T10:15:22;7.50;;;3.97;;
65667;SDS011;52369;52.542;13.232;2022-07-23T10:17:50;9.20;;;3.92;;
65667;SDS011;52369;52.542;13.232;2022-07-23T10:20:16;6.18;;;3.95;;
65667;SDS011;52369;52.542;13.232;2022-07-23T10:22:47;7.53;;;3.80;;
65667;SDS011;52369;52.542;13.232;2022-07-23T10:35:37;7.05;;;4.10;;
65667;SDS011;52369;52.542;13.232;2022-07-23T10:38:10;7.60;;;3.58;;
65667;SDS011;52369;52.542;13.232;2022-07-23T10:40:36;7.65;;;3.90;;
65667;SDS011;52369;52.542;13.232;2022-07-23T10:43:05;8.18;;;4.30;;
65667;SDS011;52369;52.542;13.232;2022-07-23T10:45:38;6.28;;;4.10;;
65667;SDS011;52369;52.542;13.232;2022-07-23T10:48:11;6.72;;;3.90;;
65667;SDS011;52369;52.542;13.232;2022-07-23T10:50:38;5.93;;;3.90;;
65667;SDS011;52369;52.542;13.232;2022-07-23T10:58:04;6.72;;;3.80;;
65667;SDS011;52369;52.542;13.232;2022-07-23T11:00:35;7.28;;;3.72;;
65667;SDS011;52369;52.542;13.232;2022-07-23T11:03:02;7.15;;;3.80;;
65667;SDS011;52369;52.542;13.232;2022-07-23T11:05:44;8.63;;;4.05;;
65667;SDS011;52369;52.542;13.232;2022-07-23T11:08:12;7.10;;;4.40;;
65667;SDS011;52369;52.542;13.232;2022-07-23T11:31:56;5.07;;;3.50;;
65667;SDS011;52369;52.542;13.232;2022-07-23T11:34:30;8.15;;;4.07;;
65667;SDS011;52369;52.542;13.232;2022-07-23T11:36:59;6.60;;;3.75;;
65667;SDS011;52369;52.542;13.232;2022-07-23T11:39:26;5.95;;;3.97;;
65667;SDS011;52369;52.542;13.232;2022-07-23T11:41:53;5.30;;;3.88;;
65667;SDS011;52369;52.542;13.232;2022-07-23T11:44:29;6.22;;;4.40;;
65667;SDS011;52369;52.542;13.232;2022-07-23T11:49:21;7.35;;;4.05;;
65667;SDS011;52369;52.542;13.232;2022-07-23T11:52:01;8.18;;;4.20;;
65667;SDS011;52369;52.542;13.232;2022-07-23T11:54:28;8.00;;;4.20;;
65667;SDS011;52369;52.542;13.232;2022-07-23T11:56:58;6.78;;;4.05;;
65667;SDS011;52369;52.542;13.232;2022-07-23T11:59:24;8.90;;;4.40;;
65667;SDS011;52369;52.542;13.232;2022-07-23T12:02:02;7.82;;;4.30;;
65667;SDS011;52369;52.542;13.232;2022-07-23T12:04:38;7.35;;;4.05;;
65667;SDS011;52369;52.542;13.232;2022-07-23T12:07:05;7.07;;;4.20;;
65667;SDS011;52369;52.542;13.232;2022-07-23T12:09:48;6.78;;;3.80;;
65667;SDS011;52369;52.542;13.232;2022-07-23T12:12:14;5.55;;;3.70;;
65667;SDS011;52369;52.542;13.232;2022-07-23T12:17:15;5.53;;;4.07;;
65667;SDS011;52369;52.542;13.232;2022-07-23T12:19:41;7.93;;;4.35;;
65667;SDS011;52369;52.542;13.232;2022-07-23T12:22:07;6.20;;;3.97;;
65667;SDS011;52369;52.542;13.232;2022-07-23T12:27:19;6.18;;;4.15;;
65667;SDS011;52369;52.542;13.232;2022-07-23T12:29:46;6.60;;;4.13;;
65667;SDS011;52369;52.542;13.232;2022-07-23T12:32:22;6.18;;;4.05;;
65667;SDS011;52369;52.542;13.232;2022-07-23T12:34:49;6.32;;;3.80;;
65667;SDS011;52369;52.542;13.232;2022-07-23T12:37:32;7.18;;;4.25;;
65667;SDS011;52369;52.542;13.232;2022-07-23T12:39:58;7.22;;;4.10;;
65667;SDS011;52369;52.542;13.232;2022-07-23T12:42:24;7.15;;;4.03;;
65667;SDS011;52369;52.542;13.232;2022-07-23T12:45:03;8.63;;;4.70;;
65667;SDS011;52369;52.542;13.232;2022-07-23T12:47:29;7.50;;;4.55;;
65667;SDS011;52369;52.542;13.232;2022-07-23T12:49:55;6.55;;;4.30;;
65667;SDS011;52369;52.542;13.232;2022-07-23T12:52:21;5.53;;;3.92;;
65667;SDS011;52369;52.542;13.232;2022-07-23T12:54:47;7.97;;;4.30;;
65667;SDS011;52369;52.542;13.232;2022-07-23T12:57:13;7.38;;;4.00;;
65667;SDS011;52369;52.542;13.232;2022-07-23T12:59:39;5.20;;;3.83;;
65667;SDS011;52369;52.542;13.232;2022-07-23T13:02:07;7.70;;;4.10;;
65667;SDS011;52369;52.542;13.232;2022-07-23T13:04:33;6.80;;;3.90;;
65667;SDS011;52369;52.542;13.232;2022-07-23T13:07:00;6.10;;;3.83;;
65667;SDS011;52369;52.542;13.232;2022-07-23T13:09:30;8.70;;;3.92;;
65667;SDS011;52369;52.542;13.232;2022-07-23T13:11:57;6.57;;;3.60;;
65667;SDS011;52369;52.542;13.232;2022-07-23T13:14:24;7.05;;;4.05;;
65667;SDS011;52369;52.542;13.232;2022-07-23T13:16:50;7.90;;;3.92;;
65667;SDS011;52369;52.542;13.232;2022-07-23T13:19:17;5.07;;;3.58;;
65667;SDS011;52369;52.542;13.232;2022-07-23T13:21:43;7.05;;;3.90;;
65667;SDS011;52369;52.542;13.232;2022-07-23T13:24:10;8.00;;;4.13;;
65667;SDS011;52369;52.542;13.232;2022-07-23T13:26:36;5.28;;;3.20;;
65667;SDS011;52369;52.542;13.232;2022-07-23T13:29:02;7.30;;;3.35;;
65667;SDS011;52369;52.542;13.232;2022-07-23T13:31:28;3.88;;;3.08;;
65667;SDS011;52369;52.542;13.232;2022-07-23T13:33:54;5.15;;;3.63;;
65667;SDS011;52369;52.542;13.232;2022-07-23T13:36:20;5.07;;;3.50;;
65667;SDS011;52369;52.542;13.232;2022-07-23T13:38:46;5.50;;;3.50;;
65667;SDS011;52369;52.542;13.232;2022-07-23T13:41:12;6.85;;;3.58;;
65667;SDS011;52369;52.542;13.232;2022-07-23T13:43:41;4.95;;;3.13;;
65667;SDS011;52369;52.542;13.232;2022-07-23T13:46:07;6.85;;;3.33;;
65667;SDS011;52369;52.542;13.232;2022-07-23T13:48:33;6.03;;;3.40;;
65667;SDS011;52369;52.542;13.232;2022-07-23T13:50:59;7.68;;;3.42;;
65667;SDS011;52369;52.542;13.232;2022-07-23T13:53:25;6.55;;;3.20;;
65667;SDS011;52369;52.542;13.232;2022-07-23T13:55:52;5.57;;;2.83;;
65667;SDS011;52369;52.542;13.232;2022-07-23T13:58:19;4.88;;;2.67;;
65667;SDS011;52369;52.542;13.232;2022-07-23T14:00:46;3.72;;;2.85;;
65667;SDS011;52369;52.542;13.232;2022-07-23T14:03:13;4.63;;;2.55;;
65667;SDS011;52369;52.542;13.232;2022-07-23T14:05:39;4.63;;;2.65;;
65667;SDS011;52369;52.542;13.232;2022-07-23T14:08:06;6.13;;;3.30;;
65667;SDS011;52369;52.542;13.232;2022-07-23T14:10:32;7.47;;;3.22;;
65667;SDS011;52369;52.542;13.232;2022-07-23T14:12:58;8.25;;;3.33;;
65667;SDS011;52369;52.542;13.232;2022-07-23T14:15:25;7.05;;;3.65;;
65667;SDS011;52369;52.542;13.232;2022-07-23T14:17:51;6.63;;;2.90;;
65667;SDS011;52369;52.542;13.232;2022-07-23T14:20:17;6.07;;;2.90;;
65667;SDS011;52369;52.542;13.232;2022-07-23T14:22:44;3.22;;;2.30;;
65667;SDS011;52369;52.542;13.232;2022-07-23T14:25:10;4.72;;;2.78;;
65667;SDS011;52369;52.542;13.232;2022-07-23T14:27:36;4.20;;;2.40;;
65667;SDS011;52369;52.542;13.232;2022-07-23T14:30:05;4.47;;;2.25;;
65667;SDS011;52369;52.542;13.232;2022-07-23T14:32:32;5.57;;;2.83;;
65667;SDS011;52369;52.542;13.232;2022-07-23T14:34:58;6.88;;;2.58;;
65667;SDS011;52369;52.542;13.232;2022-07-23T14:37:24;3.63;;;2.47;;
65667;SDS011;52369;52.542;13.232;2022-07-23T14:39:50;2.95;;;2.20;;
65667;SDS011;52369;52.542;13.232;2022-07-23T14:42:16;4.43;;;2.30;;
65667;SDS011;52369;52.542;13.232;2022-07-23T14:44:42;5.88;;;2.80;;
65667;SDS011;52369;52.542;13.232;2022-07-23T14:47:08;4.00;;;2.20;;
65667;SDS011;52369;52.542;13.232;2022-07-23T14:49:35;2.95;;;2.45;;
65667;SDS011;52369;52.542;13.232;2022-07-23T14:52:01;3.08;;;2.53;;
65667;SDS011;52369;52.542;13.232;2022-07-23T14:54:27;3.10;;;2.38;;
65667;SDS011;52369;52.542;13.232;2022-07-23T14:56:54;5.63;;;2.25;;
65667;SDS011;52369;52.542;13.232;2022-07-23T14:59:20;3.97;;;2.20;;
65667;SDS011;52369;52.542;13.232;2022-07-23T15:01:47;4.13;;;2.30;;
65667;SDS011;52369;52.542;13.232;2022-07-23T15:04:13;4.15;;;2.38;;
65667;SDS011;52369;52.542;13.232;2022-07-23T15:06:39;4.55;;;2.10;;
65667;SDS011;52369;52.542;13.232;2022-07-23T15:09:05;2.28;;;2.08;;
65667;SDS011;52369;52.542;13.232;2022-07-23T15:11:31;2.60;;;1.98;;
65667;SDS011;52369;52.542;13.232;2022-07-23T15:14:02;4.03;;;2.20;;
65667;SDS011;52369;52.542;13.232;2022-07-23T15:16:28;4.97;;;2.45;;
65667;SDS011;52369;52.542;13.232;2022-07-23T15:18:54;3.53;;;1.80;;
65667;SDS011;52369;52.542;13.232;2022-07-23T15:21:21;4.45;;;2.10;;